Time;durP1;ratioP1;P1;durP2;ratioP2;P2;SDS_P1;SDS_P2;PMS_P1;PMS_P2;Temp;Humidity;BMP_temperature;BMP_pressure;BME280_temperature;BME280_humidity;BME280_pressure;Samples;Min_cycle;Max_cycle;Signal;HPM_P1;HPM_P2
2022/09/07 00:01:04;;;;;;;3.90;0.93;;;;;;;14.61;100.00;100969.19;5007046;28;20438;-77
2022/09/07 00:03:30;;;;;;;3.63;1.17;;;;;;;14.66;100.00;100974.81;5007811;28;20034;-76
2022/09/07 00:05:56;;;;;;;5.28;1.30;;;;;;;14.64;100.00;100968.81;5004241;28;20026;-77
2022/09/07 00:08:23;;;;;;;4.15;0.85;;;;;;;14.63;100.00;100972.50;5005857;28;20036;-76
2022/09/07 00:11:00;;;;;;;5.05;1.00;;;;;;;14.64;100.00;100970.66;5006738;28;20104;-77
2022/09/07 00:13:29;;;;;;;1.58;0.80;;;;;;;14.70;100.00;100957.31;5006749;28;20034;-76
2022/09/07 00:15:55;;;;;;;4.68;1.58;;;;;;;14.66;100.00;100931.84;5006843;28;20017;-77
2022/09/07 00:18:21;;;;;;;4.38;1.38;;;;;;;14.64;100.00;100915.06;5008106;28;20042;-75
2022/09/07 00:21:04;;;;;;;2.40;1.40;;;;;;;14.63;100.00;100910.69;5007948;28;20030;-76
2022/09/07 00:23:30;;;;;;;2.25;1.40;;;;;;;14.61;100.00;100914.59;4998867;28;20030;-75
2022/09/07 00:26:18;;;;;;;3.97;1.30;;;;;;;14.62;100.00;100932.38;5006869;28;20036;-77
2022/09/07 00:28:44;;;;;;;2.97;1.13;;;;;;;14.69;100.00;100939.50;5007279;28;20030;-76
2022/09/07 00:31:12;;;;;;;3.30;1.25;;;;;;;14.67;100.00;100946.09;5007401;28;20116;-75
2022/09/07 00:33:38;;;;;;;4.75;1.10;;;;;;;14.66;100.00;100947.13;5006972;28;20045;-78
2022/09/07 00:36:04;;;;;;;3.10;1.20;;;;;;;14.66;100.00;100956.03;5007845;28;20026;-75
2022/09/07 00:38:30;;;;;;;4.90;1.08;;;;;;;14.64;100.00;100960.75;5006882;28;20069;-76
2022/09/07 00:40:55;;;;;;;4.00;1.40;;;;;;;14.62;100.00;100976.22;5006364;28;20054;-75
2022/09/07 00:43:36;;;;;;;2.50;1.83;;;;;;;14.64;100.00;100973.34;5002840;28;20136;-76
2022/09/07 00:46:03;;;;;;;2.97;1.42;;;;;;;14.65;100.00;100975.81;5006367;28;20040;-76
2022/09/07 00:48:35;;;;;;;4.38;1.55;;;;;;;14.60;100.00;100951.38;5006735;28;20022;-76
2022/09/07 00:51:06;;;;;;;2.83;0.90;;;;;;;14.65;100.00;100967.78;5001160;28;20050;-75
2022/09/07 00:53:40;;;;;;;3.33;1.20;;;;;;;14.67;100.00;100952.31;5006323;28;20065;-76
2022/09/07 00:56:06;;;;;;;2.10;1.17;;;;;;;14.70;100.00;100929.59;5006303;28;20044;-75
2022/09/07 00:58:34;;;;;;;3.03;1.00;;;;;;;14.70;100.00;100906.28;5006227;28;20105;-76
2022/09/07 01:01:00;;;;;;;3.63;1.45;;;;;;;14.71;100.00;100910.59;5007120;28;20451;-75
2022/09/07 01:03:32;;;;;;;2.00;1.10;;;;;;;14.69;100.00;100934.16;5006365;28;20032;-76
2022/09/07 01:06:06;;;;;;;1.65;1.10;;;;;;;14.72;100.00;100947.19;5006010;28;20030;-75
2022/09/07 01:08:33;;;;;;;3.13;1.30;;;;;;;14.69;100.00;100944.88;5005823;28;20221;-76
2022/09/07 01:10:59;;;;;;;8.88;1.48;;;;;;;14.70;100.00;100938.50;5005547;28;20029;-76
2022/09/07 01:13:28;;;;;;;6.07;2.08;;;;;;;14.63;100.00;100934.03;4989966;28;20062;-76
2022/09/07 01:16:26;;;;;;;2.60;1.50;;;;;;;14.66;100.00;100947.13;4996409;28;20060;-77
2022/09/07 01:19:24;;;;;;;5.38;1.20;;;;;;;14.64;100.00;100933.88;5019350;28;20029;-77
2022/09/07 01:22:17;;;;;;;3.70;1.40;;;;;;;14.69;100.00;100944.88;5002005;28;20022;-77
2022/09/07 01:24:49;;;;;;;6.40;2.22;;;;;;;14.70;100.00;100938.50;4989088;28;20038;-76
2022/09/07 01:27:29;;;;;;;6.78;1.45;;;;;;;14.60;100.00;100913.75;5005343;28;20391;-76
2022/09/07 01:30:06;;;;;;;2.22;1.50;;;;;;;14.62;100.00;100917.09;5004911;28;20037;-77
2022/09/07 01:32:45;;;;;;;1.67;1.15;;;;;;;14.60;100.00;100913.75;4990278;28;20033;-76
2022/09/07 01:35:44;;;;;;;1.95;1.42;;;;;;;14.63;100.00;100907.16;4997006;28;20037;-78
2022/09/07 01:38:33;;;;;;;4.55;1.30;;;;;;;14.66;100.00;100904.13;5005089;28;20105;-75
2022/09/07 01:41:04;;;;;;;6.55;1.65;;;;;;;14.65;100.00;100889.00;5006141;28;20115;-75
2022/09/07 01:43:39;;;;;;;7.40;2.17;;;;;;;14.64;100.00;100880.13;5006822;28;20244;-75
2022/09/07 01:46:13;;;;;;;4.07;1.40;;;;;;;14.64;100.00;100884.69;5005183;28;20507;-76
2022/09/07 01:48:41;;;;;;;3.80;1.58;;;;;;;14.65;100.00;100859.47;5006385;28;20092;-77
2022/09/07 01:51:07;;;;;;;2.95;1.60;;;;;;;14.69;100.00;100856.22;5006085;28;20018;-76
2022/09/07 01:53:37;;;;;;;7.37;1.30;;;;;;;14.66;100.00;100853.91;5005448;28;20056;-76
2022/09/07 01:56:06;;;;;;;7.05;1.38;;;;;;;14.62;100.00;100865.22;5004981;28;20570;-76
2022/09/07 01:58:33;;;;;;;2.00;1.30;;;;;;;14.69;100.00;100874.19;4990047;28;20570;-76
2022/09/07 02:01:08;;;;;;;6.15;1.70;;;;;;;14.69;100.00;100853.53;4999662;28;20026;-75
2022/09/07 02:03:45;;;;;;;5.32;1.40;;;;;;;14.72;100.00;100831.66;5004796;28;20486;-76
2022/09/07 02:06:35;;;;;;;2.10;1.50;;;;;;;14.72;100.00;100837.03;5006222;28;20518;-77
2022/09/07 02:09:11;;;;;;;2.05;1.10;;;;;;;14.73;100.00;100821.75;5006102;28;20053;-75
2022/09/07 02:11:41;;;;;;;2.20;1.23;;;;;;;14.69;100.00;100807.00;5014908;28;20305;-76
2022/09/07 02:14:18;;;;;;;6.32;1.67;;;;;;;14.72;100.00;100795.88;5004711;28;20049;-77
2022/09/07 02:16:57;;;;;;;2.35;1.48;;;;;;;14.73;100.00;100784.97;4988417;28;20038;-76
2022/09/07 02:19:26;;;;;;;3.97;1.90;;;;;;;14.74;100.00;100802.72;5003975;28;20511;-76
2022/09/07 02:21:58;;;;;;;3.97;1.70;;;;;;;14.70;100.00;100792.53;5004534;28;20403;-76
2022/09/07 02:24:36;;;;;;;4.97;1.70;;;;;;;14.70;100.00;100806.84;5005920;28;20045;-75
2022/09/07 02:27:07;;;;;;;2.25;1.42;;;;;;;14.70;100.00;100812.22;5004625;28;20037;-76
2022/09/07 02:29:34;;;;;;;4.70;1.50;;;;;;;14.66;100.00;100810.09;4998306;28;20069;-75
2022/09/07 02:31:59;;;;;;;5.53;1.70;;;;;;;14.65;100.00;100829.91;5004510;28;20057;-75
2022/09/07 02:34:25;;;;;;;3.15;1.30;;;;;;;14.63;100.00;100830.06;5004383;28;20033;-77
2022/09/07 02:36:53;;;;;;;2.73;1.50;;;;;;;14.63;100.00;100821.19;5006114;28;20074;-76
2022/09/07 02:39:18;;;;;;;4.32;2.10;;;;;;;14.63;100.00;100821.19;5017961;28;20300;-76
2022/09/07 02:41:44;;;;;;;6.10;1.80;;;;;;;14.60;100.00;100826.94;5005722;28;20021;-76
2022/09/07 02:44:20;;;;;;;2.78;1.40;;;;;;;14.48;100.00;100821.19;5004484;28;20034;-77
2022/09/07 02:46:51;;;;;;;4.60;1.70;;;;;;;14.54;100.00;100823.16;5004604;28;20037;-76
2022/09/07 02:49:32;;;;;;;5.47;1.70;;;;;;;14.57;100.00;100818.25;5004061;28;20038;-77
2022/09/07 02:52:24;;;;;;;3.47;2.08;;;;;;;14.52;100.00;100804.50;5005933;28;20034;-76
2022/09/07 02:55:09;;;;;;;4.50;1.60;;;;;;;14.48;100.00;100803.22;5002083;28;20033;-77
2022/09/07 02:57:48;;;;;;;7.00;2.07;;;;;;;14.47;100.00;100819.50;4999127;28;20033;-74
2022/09/07 03:00:24;;;;;;;2.75;2.28;;;;;;;14.51;100.00;100829.69;5005225;28;20292;-76
2022/09/07 03:03:17;;;;;;;4.40;1.73;;;;;;;14.50;100.00;100803.84;5004911;28;20124;-76
2022/09/07 03:05:49;;;;;;;4.30;1.70;;;;;;;14.51;100.00;100808.19;5004335;28;20045;-76
2022/09/07 03:08:23;;;;;;;2.70;1.85;;;;;;;14.50;100.00;100797.66;4987865;28;20136;-76
2022/09/07 03:10:50;;;;;;;3.50;2.03;;;;;;;14.47;100.00;100795.31;5003900;28;20467;-76
2022/09/07 03:13:26;;;;;;;6.03;1.77;;;;;;;14.46;100.00;100772.19;4988361;28;20026;-76
2022/09/07 03:15:52;;;;;;;3.25;1.75;;;;;;;14.50;100.00;100743.94;5004137;28;20088;-75
2022/09/07 03:18:17;;;;;;;6.65;1.90;;;;;;;14.51;100.00;100722.22;5002734;28;20034;-76
2022/09/07 03:20:43;;;;;;;5.90;2.50;;;;;;;14.56;100.00;100713.63;4987665;28;20111;-76
2022/09/07 03:23:08;;;;;;;9.27;2.37;;;;;;;14.56;100.00;100681.41;5006496;28;20276;-76
2022/09/07 03:25:34;;;;;;;4.33;2.17;;;;;;;14.64;100.00;100675.09;5008215;28;20495;-76
2022/09/07 03:27:59;;;;;;;2.90;1.67;;;;;;;14.60;100.00;100655.81;5009102;28;20395;-76
2022/09/07 03:30:25;;;;;;;7.23;2.00;;;;;;;14.59;100.00;100638.06;4991083;28;20732;-76
2022/09/07 03:32:50;;;;;;;3.30;1.73;;;;;;;14.57;100.00;100659.72;5008132;28;20065;-76
2022/09/07 03:35:17;;;;;;;5.18;2.00;;;;;;;14.55;100.00;100675.19;5007906;28;20120;-76
2022/09/07 03:37:42;;;;;;;4.57;1.70;;;;;;;14.57;100.00;100665.09;5009533;28;20101;-76
2022/09/07 03:40:11;;;;;;;5.47;2.13;;;;;;;14.54;100.00;100668.19;5008871;28;20451;-76
2022/09/07 03:42:36;;;;;;;3.55;2.05;;;;;;;14.50;100.00;100657.97;4991561;28;20028;-76
2022/09/07 03:45:03;;;;;;;4.05;1.60;;;;;;;14.57;100.00;100678.53;5006386;28;20120;-75
2022/09/07 03:47:29;;;;;;;3.28;2.10;;;;;;;14.50;100.00;100682.97;5005845;28;20537;-76
2022/09/07 03:49:54;;;;;;;4.32;2.00;;;;;;;14.53;100.00;100684.44;5004456;28;20069;-77
2022/09/07 03:52:20;;;;;;;2.20;1.50;;;;;;;14.49;100.00;100675.94;5003697;28;20039;-77
2022/09/07 03:54:46;;;;;;;5.70;1.87;;;;;;;14.51;100.00;100651.56;5005425;28;20525;-75
2022/09/07 03:57:11;;;;;;;3.03;1.63;;;;;;;14.56;100.00;100636.59;5003524;28;20113;-77
2022/09/07 03:59:36;;;;;;;3.97;2.37;;;;;;;14.49;100.00;100595.38;5003818;28;20890;-75
2022/09/07 04:02:02;;;;;;;4.10;1.90;;;;;;;14.47;100.00;100610.84;4986435;28;20491;-78
2022/09/07 04:04:29;;;;;;;2.88;1.90;;;;;;;14.47;100.00;100626.94;5003651;28;20073;-76
2022/09/07 04:06:54;;;;;;;;;;;;;;;14.41;100.00;100611.59;5004130;28;20062;-76
2022/09/07 04:09:19;;;;;;;;;;;;;;;14.48;100.00;100614.34;5004284;28;19952;-77
2022/09/07 04:11:45;;;;;;;2.13;1.93;;;;;;;14.41;100.00;100584.72;5003828;28;20329;-76
2022/09/07 04:14:11;;;;;;;7.17;2.00;;;;;;;14.40;100.00;100601.88;5003513;28;20074;-77
2022/09/07 04:16:37;;;;;;;3.55;1.50;;;;;;;14.40;100.00;100596.50;5003824;28;20026;-77
2022/09/07 04:19:02;;;;;;;5.30;2.13;;;;;;;14.43;100.00;100604.19;5007112;28;20044;-76
2022/09/07 04:21:29;;;;;;;6.28;1.80;;;;;;;14.40;100.00;100604.56;5007227;28;20449;-77
2022/09/07 04:23:55;;;;;;;5.75;1.42;;;;;;;14.38;100.00;100609.28;4990823;28;20033;-76
2022/09/07 04:26:22;;;;;;;6.80;1.90;;;;;;;14.42;100.00;100617.78;5005929;28;20089;-75
2022/09/07 04:28:49;;;;;;;5.25;2.08;;;;;;;14.39;100.00;100626.22;5007258;28;20573;-76
2022/09/07 04:31:16;;;;;;;7.80;2.30;;;;;;;14.43;100.00;100640.94;5004514;28;20113;-76
2022/09/07 04:33:42;;;;;;;4.35;1.95;;;;;;;14.45;100.00;100614.75;4994945;28;20034;-75
2022/09/07 04:36:08;;;;;;;5.88;2.38;;;;;;;14.44;100.00;100603.13;4989316;28;20030;-76
2022/09/07 04:38:34;;;;;;;7.60;1.90;;;;;;;14.38;100.00;100600.41;5007103;28;20044;-76
2022/09/07 04:40:59;;;;;;;6.38;1.92;;;;;;;14.42;100.00;100626.69;4989987;28;20045;-75
2022/09/07 04:43:25;;;;;;;1.67;1.47;;;;;;;14.36;100.00;100589.84;5008082;28;20387;-77
2022/09/07 04:45:50;;;;;;;4.72;2.28;;;;;;;14.40;100.00;100563.44;5006772;28;20084;-77
2022/09/07 04:48:16;;;;;;;5.90;2.57;;;;;;;14.44;100.00;100562.03;5006388;28;20051;-77
2022/09/07 04:50:41;;;;;;;13.57;2.93;;;;;;;14.42;100.00;100556.88;5007347;28;20030;-75
2022/09/07 04:53:06;;;;;;;4.87;1.93;;;;;;;14.42;100.00;100566.75;5006434;28;20061;-78
2022/09/07 04:55:32;;;;;;;3.30;1.97;;;;;;;14.47;100.00;100562.50;5008548;28;20068;-77
2022/09/07 04:57:57;;;;;;;3.33;1.63;;;;;;;14.51;100.00;100560.22;5007035;28;20482;-75
2022/09/07 05:00:23;;;;;;;6.77;2.50;;;;;;;14.42;100.00;100521.09;5002771;28;20665;-77
2022/09/07 05:02:48;;;;;;;4.80;2.60;;;;;;;14.49;100.00;100541.63;5015005;28;20034;-76
2022/09/07 05:05:14;;;;;;;5.50;1.70;;;;;;;14.48;100.00;100549.88;5015768;28;20018;-76
2022/09/07 05:07:39;;;;;;;3.17;1.63;;;;;;;14.56;100.00;100557.81;5006429;28;20045;-77
2022/09/07 05:10:05;;;;;;;7.53;2.23;;;;;;;14.61;100.00;100551.88;5005869;28;20030;-77
2022/09/07 05:12:30;;;;;;;7.27;2.53;;;;;;;14.56;100.00;100520.22;5007518;28;20037;-77
2022/09/07 05:14:56;;;;;;;8.53;2.10;;;;;;;14.59;100.00;100484.09;5006216;28;20100;-76
2022/09/07 05:17:21;;;;;;;5.25;1.52;;;;;;;14.67;100.00;100468.63;5005698;28;20298;-78
2022/09/07 05:19:47;;;;;;;4.77;1.63;;;;;;;14.55;100.00;100467.53;5006145;28;20483;-75
2022/09/07 05:22:12;;;;;;;3.33;1.53;;;;;;;14.55;100.00;100480.94;4988367;28;20042;-75
2022/09/07 05:24:38;;;;;;;10.43;2.60;;;;;;;14.57;100.00;100473.53;4989711;28;20029;-75
2022/09/07 05:27:03;;;;;;;3.97;2.10;;;;;;;14.63;100.00;100478.09;4989931;28;20044;-76
2022/09/07 05:29:29;;;;;;;7.13;2.13;;;;;;;14.62;100.00;100448.78;4988862;28;20026;-77
2022/09/07 05:31:55;;;;;;;3.88;1.88;;;;;;;14.66;100.00;100445.50;5001992;28;20297;-76
2022/09/07 05:34:21;;;;;;;2.05;1.48;;;;;;;14.68;100.00;100427.31;5003790;28;20031;-77
2022/09/07 05:36:46;;;;;;;4.57;1.80;;;;;;;14.66;100.00;100441.97;5006148;28;20539;-76
2022/09/07 05:39:12;;;;;;;7.50;3.60;;;;;;;14.73;100.00;100488.53;5007405;28;20033;-75
2022/09/07 05:41:37;;;;;;;6.97;1.70;;;;;;;14.76;100.00;100451.34;5005260;28;20189;-75
2022/09/07 05:44:04;;;;;;;3.92;1.52;;;;;;;14.80;100.00;100445.56;4989495;28;20033;-77
2022/09/07 05:46:30;;;;;;;4.75;1.75;;;;;;;14.87;100.00;100443.78;4999444;28;20037;-77
2022/09/07 05:48:56;;;;;;;6.18;1.88;;;;;;;14.87;100.00;100458.03;5001544;28;20072;-77
2022/09/07 05:51:21;;;;;;;4.70;1.70;;;;;;;14.88;100.00;100395.16;5000413;28;20061;-77
2022/09/07 05:53:47;;;;;;;12.00;2.00;;;;;;;14.91;100.00;100410.91;4985271;28;20775;-77
2022/09/07 05:56:13;;;;;;;2.08;1.60;;;;;;;14.88;100.00;100411.28;5004529;28;20034;-75
2022/09/07 05:58:39;;;;;;;4.50;1.63;;;;;;;14.97;100.00;100444.22;5007136;28;20036;-76
2022/09/07 06:01:10;;;;;;;5.10;1.95;;;;;;;15.03;100.00;100458.72;5005817;28;20057;-76
2022/09/07 06:03:37;;;;;;;6.90;1.75;;;;;;;14.89;100.00;100436.31;5006978;28;20041;-75
2022/09/07 06:06:06;;;;;;;3.78;1.85;;;;;;;15.04;100.00;100496.16;5006910;28;20300;-77
2022/09/07 06:08:33;;;;;;;5.82;1.65;;;;;;;15.16;100.00;100516.09;4999526;28;20041;-78
2022/09/07 06:11:08;;;;;;;5.03;1.77;;;;;;;15.25;100.00;100506.00;5005226;28;20014;-77
2022/09/07 06:13:34;;;;;;;3.53;1.92;;;;;;;15.22;100.00;100446.41;4999014;28;20038;-75
2022/09/07 06:16:01;;;;;;;4.18;1.55;;;;;;;15.32;100.00;100498.81;5004679;28;20022;-76
2022/09/07 06:18:31;;;;;;;4.78;1.70;;;;;;;15.49;100.00;100553.09;5021918;28;20399;-76
2022/09/07 06:21:08;;;;;;;7.65;2.13;;;;;;;15.44;100.00;100474.03;5005195;28;20084;-76
2022/09/07 06:23:36;;;;;;;3.80;2.00;;;;;;;15.35;100.00;100492.19;5005972;28;20040;-75
2022/09/07 06:26:02;;;;;;;3.45;1.70;;;;;;;15.46;100.00;100517.72;5006380;28;20770;-77
2022/09/07 06:28:30;;;;;;;3.95;1.70;;;;;;;15.49;100.00;100493.91;5006158;28;20125;-78
2022/09/07 06:31:05;;;;;;;3.58;1.88;;;;;;;15.54;100.00;100483.38;5005544;28;20109;-75
2022/09/07 06:33:30;;;;;;;6.25;1.63;;;;;;;15.54;100.00;100475.28;4999288;28;20044;-76
2022/09/07 06:36:05;;;;;;;2.83;2.00;;;;;;;15.63;100.00;100517.13;5006668;28;20022;-76
2022/09/07 06:38:32;;;;;;;4.97;1.83;;;;;;;15.57;100.00;100482.16;4998269;28;20176;-76
2022/09/07 06:41:02;;;;;;;2.33;1.60;;;;;;;15.64;100.00;100512.59;5006449;28;20025;-77
2022/09/07 06:43:28;;;;;;;5.43;1.90;;;;;;;15.52;100.00;100428.94;5006125;28;20057;-76
2022/09/07 06:45:54;;;;;;;4.43;1.75;;;;;;;15.63;100.00;100447.19;5005426;28;20475;-76
2022/09/07 06:48:20;;;;;;;4.27;1.47;;;;;;;15.77;100.00;100463.41;4988056;28;20046;-76
2022/09/07 06:50:56;;;;;;;3.33;1.90;;;;;;;15.77;100.00;100472.28;5006764;28;20017;-76
2022/09/07 06:53:23;;;;;;;2.67;2.00;;;;;;;15.57;100.00;100361.91;5007892;28;20034;-75
2022/09/07 06:55:48;;;;;;;;;;;;;;;15.62;100.00;100394.41;4988115;28;20022;-77
2022/09/07 06:58:14;;;;;;;;;;;;;;;15.74;100.00;100466.50;5006056;28;20005;-75
2022/09/07 07:00:39;;;;;;;6.23;2.40;;;;;;;15.63;100.00;100439.09;5002332;28;19957;-76
2022/09/07 07:03:05;;;;;;;3.43;1.90;;;;;;;15.60;100.00;100457.53;4999929;28;20038;-77
2022/09/07 07:05:30;;;;;;;4.77;2.10;;;;;;;15.48;100.00;100438.44;5007202;28;20082;-75
2022/09/07 07:07:56;;;;;;;4.33;2.37;;;;;;;15.73;100.00;100483.66;5007182;28;20034;-76
2022/09/07 07:10:22;;;;;;;4.68;1.77;;;;;;;15.81;100.00;100519.31;5006518;28;20030;-77
2022/09/07 07:12:47;;;;;;;7.40;2.17;;;;;;;15.77;100.00;100468.78;4986182;28;20439;-79
2022/09/07 07:15:13;;;;;;;6.77;1.90;;;;;;;15.67;100.00;100417.19;4990068;28;20068;-77
2022/09/07 07:17:38;;;;;;;5.57;2.07;;;;;;;15.83;100.00;100549.56;5006840;28;20125;-78
2022/09/07 07:20:05;;;;;;;4.23;2.07;;;;;;;15.85;100.00;100452.47;4988778;28;20072;-76
2022/09/07 07:22:30;;;;;;;;;;;;;;;15.68;100.00;100365.00;5007024;28;20554;-76
2022/09/07 07:24:55;;;;;;;;;;;;;;;15.74;100.00;100409.97;5022136;28;20000;-76
2022/09/07 07:27:21;;;;;;;6.47;2.63;;;;;;;15.65;100.00;100413.88;5007356;28;19913;-78
2022/09/07 07:29:46;;;;;;;5.13;2.03;;;;;;;15.72;100.00;100418.25;4985981;28;20027;-77
2022/09/07 07:32:13;;;;;;;5.22;2.03;;;;;;;15.84;100.00;100526.16;5005975;28;20042;-74
2022/09/07 07:34:38;;;;;;;;;;;;;;;16.11;100.00;100534.28;5007777;28;20018;-77
2022/09/07 07:37:04;;;;;;;;;;;;;;;15.89;100.00;100394.47;5006201;28;20419;-75
2022/09/07 07:39:29;;;;;;;2.73;1.30;;;;;;;16.22;100.00;100472.59;5006732;28;19959;-77
2022/09/07 07:41:54;;;;;;;3.77;1.80;;;;;;;16.34;100.00;100386.59;4999360;28;20130;-77
2022/09/07 07:44:20;;;;;;;5.17;1.60;;;;;;;16.28;100.00;100297.72;5005923;28;20072;-76
2022/09/07 07:46:47;;;;;;;3.40;1.53;;;;;;;16.61;100.00;100472.78;5005473;28;20041;-76
2022/09/07 07:49:13;;;;;;;7.63;2.28;;;;;;;16.26;100.00;100233.28;4980456;28;20108;-76
2022/09/07 07:51:38;;;;;;;6.43;1.67;;;;;;;16.42;100.00;100389.06;5004886;28;20431;-76
2022/09/07 07:54:04;;;;;;;6.27;2.10;;;;;;;16.25;100.00;100223.56;4997486;28;20033;-76
2022/09/07 07:56:29;;;;;;;11.27;1.83;;;;;;;16.09;100.00;100215.94;5005559;28;20498;-76
2022/09/07 07:58:54;;;;;;;2.20;2.00;;;;;;;16.28;100.00;100354.28;5005365;28;20521;-76
2022/09/07 08:01:20;;;;;;;4.17;2.17;;;;;;;16.26;100.00;100287.13;5005259;28;20040;-78
2022/09/07 08:03:46;;;;;;;6.17;2.70;;;;;;;16.28;100.00;100273.47;5007777;28;20100;-77
2022/09/07 08:06:19;;;;;;;5.53;1.95;;;;;;;16.16;100.00;100246.38;5005811;28;20037;-75
2022/09/07 08:08:45;;;;;;;4.45;2.08;;;;;;;16.19;100.00;100270.16;5005442;28;20030;-77
2022/09/07 08:11:15;;;;;;;6.60;2.60;;;;;;;16.21;100.00;100236.59;4999854;28;20437;-78
2022/09/07 08:13:42;;;;;;;7.28;2.05;;;;;;;16.06;100.00;100138.25;5008686;28;20038;-77
2022/09/07 08:16:09;;;;;;;4.60;2.03;;;;;;;16.24;100.00;100275.75;5008412;28;20406;-75
2022/09/07 08:18:35;;;;;;;3.97;2.28;;;;;;;16.38;100.00;100263.88;5009956;28;20030;-75
2022/09/07 08:21:03;;;;;;;2.58;1.85;;;;;;;16.72;100.00;100251.13;5008045;28;20021;-76
2022/09/07 08:23:30;;;;;;;7.18;2.70;;;;;;;16.81;99.29;100171.69;4999785;28;20115;-77
2022/09/07 08:25:59;;;;;;;3.53;2.30;;;;;;;16.47;98.53;100054.34;5007923;28;20117;-76
2022/09/07 08:28:27;;;;;;;5.35;2.60;;;;;;;16.42;98.52;100078.41;5009233;28;20036;-75
2022/09/07 08:30:52;;;;;;;5.93;2.10;;;;;;;16.33;100.00;100131.72;5000892;28;20034;-75
2022/09/07 08:33:18;;;;;;;4.33;2.00;;;;;;;16.63;100.00;100311.69;5006353;28;20045;-76
2022/09/07 08:36:14;;;;;;;4.40;2.65;;;;;;;16.63;99.35;100155.38;5007798;28;20033;-75
2022/09/07 08:38:40;;;;;;;4.22;2.20;;;;;;;16.72;100.00;100264.59;4997619;28;20100;-76
2022/09/07 08:41:39;;;;;;;6.63;2.40;;;;;;;16.50;100.00;100255.16;4990904;28;20040;-76
2022/09/07 08:44:15;;;;;;;5.25;2.13;;;;;;;16.42;100.00;100213.13;4994415;28;20472;-75
2022/09/07 08:46:50;;;;;;;10.10;2.92;;;;;;;16.38;100.00;100249.59;5007701;28;20080;-75
2022/09/07 08:49:25;;;;;;;6.13;2.40;;;;;;;16.45;100.00;100339.31;5007717;28;20069;-77
2022/09/07 08:51:57;;;;;;;6.18;2.50;;;;;;;16.62;100.00;100363.94;5010057;28;20089;-76
2022/09/07 08:54:23;;;;;;;4.45;1.98;;;;;;;16.37;100.00;100274.91;4992024;28;20491;-78
2022/09/07 08:56:52;;;;;;;9.37;2.87;;;;;;;16.46;100.00;100386.78;5008165;28;20033;-76
2022/09/07 08:59:23;;;;;;;7.78;2.22;;;;;;;16.46;100.00;100346.38;5007968;28;20434;-76
2022/09/07 09:01:48;;;;;;;8.18;2.55;;;;;;;16.48;100.00;100346.16;5007351;28;20080;-75
2022/09/07 09:04:24;;;;;;;13.77;2.33;;;;;;;16.56;100.00;100491.44;5008579;28;20026;-76
2022/09/07 09:07:28;;;;;;;4.00;2.55;;;;;;;16.53;100.00;100467.59;5007290;28;20030;-76
2022/09/07 09:10:30;;;;;;;8.23;3.75;;;;;;;16.52;100.00;100509.06;4966304;28;20047;-76
2022/09/07 09:13:12;;;;;;;8.75;3.38;;;;;;;16.56;100.00;100548.88;5007187;28;20026;-78
2022/09/07 09:15:59;;;;;;;6.90;2.67;;;;;;;16.71;100.00;100523.56;5000392;28;20124;-77
2022/09/07 09:18:52;;;;;;;4.68;2.20;;;;;;;16.71;100.00;100508.22;5007297;28;20407;-77
2022/09/07 09:21:18;;;;;;;8.07;2.60;;;;;;;16.80;100.00;100590.56;4996041;28;20406;-75
2022/09/07 09:23:46;;;;;;;;;;;;;;;17.04;100.00;100616.09;5008639;28;20445;-76
2022/09/07 09:26:30;;;;;;;7.78;2.40;;;;;;;17.06;100.00;100578.13;5006590;28;19920;-77
2022/09/07 09:28:56;;;;;;;6.68;2.83;;;;;;;16.95;100.00;100551.78;4987105;28;20440;-76
2022/09/07 09:31:31;;;;;;;4.22;2.63;;;;;;;17.05;100.00;100580.00;4998554;28;20052;-76
2022/09/07 09:34:12;;;;;;;10.38;2.65;;;;;;;17.09;100.00;100604.66;5006599;28;20087;-76
2022/09/07 09:36:53;;;;;;;8.05;2.85;;;;;;;16.90;100.00;100474.22;5006562;28;20053;-77
2022/09/07 09:39:36;;;;;;;10.18;2.50;;;;;;;16.84;100.00;100524.41;5007538;28;20034;-76
2022/09/07 09:42:11;;;;;;;4.65;3.25;;;;;;;16.54;100.00;100534.75;4998592;28;20026;-76
2022/09/07 09:44:37;;;;;;;5.07;2.78;;;;;;;16.55;100.00;100641.53;5006528;28;20034;-75
2022/09/07 09:47:03;;;;;;;;;;;;;;;16.25;100.00;100667.97;5007047;28;20080;-77
2022/09/07 09:49:34;;;;;;;;;;;;;;;16.10;100.00;100818.09;5008143;28;19913;-75
2022/09/07 09:52:03;;;;;;;5.70;3.42;;;;;;;16.11;100.00;100982.19;5007536;28;19975;-76
2022/09/07 09:54:40;;;;;;;5.90;2.83;;;;;;;16.13;100.00;101033.16;5007365;28;20041;-76
2022/09/07 09:57:14;;;;;;;5.43;3.10;;;;;;;16.07;100.00;101114.75;5008088;28;20121;-78
2022/09/07 09:59:39;;;;;;;8.63;3.35;;;;;;;15.91;100.00;100991.94;5007125;28;20030;-76
2022/09/07 10:02:29;;;;;;;6.60;2.97;;;;;;;16.00;100.00;101133.50;5007572;28;20018;-77
2022/09/07 10:04:54;;;;;;;7.63;3.42;;;;;;;16.09;100.00;101198.88;5006405;28;20037;-76
2022/09/07 10:07:28;;;;;;;11.30;3.47;;;;;;;16.08;100.00;101218.75;5007630;28;20025;-76
2022/09/07 10:09:55;;;;;;;9.80;3.33;;;;;;;16.04;100.00;101170.66;5005505;28;20037;-76
2022/09/07 10:12:32;;;;;;;11.10;3.03;;;;;;;16.03;100.00;101155.50;4981604;28;20023;-76
2022/09/07 10:15:05;;;;;;;3.58;2.70;;;;;;;16.11;100.00;101153.72;5007061;28;20034;-76
2022/09/07 10:17:32;;;;;;;6.10;2.50;;;;;;;16.15;100.00;101133.47;5013891;28;20026;-76
2022/09/07 10:20:20;;;;;;;8.43;3.17;;;;;;;16.03;100.00;101022.72;5005983;28;20534;-76
2022/09/07 10:22:57;;;;;;;6.22;3.00;;;;;;;15.80;100.00;100966.34;5003372;28;20034;-78
2022/09/07 10:25:43;;;;;;;7.25;3.70;;;;;;;15.82;100.00;101058.53;5006438;28;20038;-76
2022/09/07 10:28:14;;;;;;;11.00;3.30;;;;;;;15.85;100.00;101082.41;4986550;28;20508;-77
2022/09/07 10:30:52;;;;;;;8.48;3.45;;;;;;;15.94;100.00;101162.00;4999742;28;20057;-78
2022/09/07 10:33:27;;;;;;;12.75;3.88;;;;;;;15.73;100.00;101127.81;5005118;28;20038;-77
2022/09/07 10:36:03;;;;;;;9.15;3.70;;;;;;;15.73;100.00;101086.56;4998980;28;20034;-77
2022/09/07 10:38:35;;;;;;;5.25;3.40;;;;;;;15.71;100.00;101035.63;5005602;28;20487;-77
2022/09/07 10:41:04;;;;;;;5.32;3.40;;;;;;;15.83;100.00;101041.38;5006153;28;20033;-77
2022/09/07 10:43:46;;;;;;;6.50;3.25;;;;;;;15.83;100.00;101012.56;5012177;28;20088;-76
2022/09/07 10:46:35;;;;;;;8.50;3.92;;;;;;;15.73;100.00;100941.22;4983976;28;20499;-77
2022/09/07 10:49:22;;;;;;;8.52;3.53;;;;;;;15.87;100.00;101004.09;5000864;28;20060;-77
2022/09/07 10:52:13;;;;;;;6.22;3.58;;;;;;;15.98;100.00;101044.81;4996765;28;20049;-77
2022/09/07 10:54:48;;;;;;;8.70;4.50;;;;;;;15.80;100.00;100985.19;5005403;28;20029;-76
2022/09/07 10:57:28;;;;;;;8.68;4.18;;;;;;;15.72;100.00;100950.34;5006641;28;20037;-77
2022/09/07 11:00:13;;;;;;;8.35;4.85;;;;;;;15.91;100.00;101054.69;5008427;28;20068;-77
2022/09/07 11:02:46;;;;;;;10.45;4.35;;;;;;;15.70;100.00;101011.56;5019859;28;20042;-77
2022/09/07 11:05:48;;;;;;;8.57;5.10;;;;;;;15.71;100.00;101024.88;5007876;28;20042;-77
2022/09/07 11:08:20;;;;;;;14.27;5.97;;;;;;;15.76;100.00;101018.91;5005501;28;20038;-76
2022/09/07 11:11:23;;;;;;;6.15;4.40;;;;;;;15.54;100.00;100970.38;5007565;28;20037;-77
2022/09/07 11:13:53;;;;;;;7.15;4.63;;;;;;;15.59;100.00;100933.00;5005756;28;20029;-76
2022/09/07 11:16:24;;;;;;;11.48;4.88;;;;;;;15.49;100.00;100892.09;5005493;28;20030;-77
2022/09/07 11:18:59;;;;;;;9.52;5.00;;;;;;;15.50;100.00;100861.50;5008491;28;20450;-77
2022/09/07 11:21:35;;;;;;;12.85;5.50;;;;;;;15.56;100.00;100871.47;5006690;28;20034;-77
2022/09/07 11:24:08;;;;;;;5.43;3.85;;;;;;;15.52;100.00;100816.41;5005060;28;20126;-78
2022/09/07 11:26:41;;;;;;;8.52;4.30;;;;;;;15.50;100.00;100750.31;5001465;28;20057;-77
2022/09/07 11:29:19;;;;;;;12.85;4.57;;;;;;;15.98;100.00;100785.50;5007450;28;20936;-77
2022/09/07 11:31:54;;;;;;;9.68;3.83;;;;;;;16.45;100.00;100827.00;4990533;28;20026;-77
2022/09/07 11:34:29;;;;;;;10.82;4.95;;;;;;;17.02;100.00;100854.66;5006899;28;20128;-76
2022/09/07 11:37:01;;;;;;;7.63;4.40;;;;;;;17.49;100.00;100823.25;4990512;28;20128;-77